GIA179 WIBB-WIII
Flight info
| Callsign | GIA179 |
|---|---|
| Flight time | 1h 20m |
| Altitude | 33000 |
| Route | ISROR T5 BUNIK |
| Aircraft | B738/M-SDE2E3FGHIRWY/LB1 |
Departure
| Time | 2026-04-23 08:58 |
|---|---|
| Airport | Sultan Syarif Kasim II International Airport / Roesmin Nurjadin AFB (WIBB) |
Arrival
| Time | 2026-04-23 10:18 |
|---|---|
| Airport | Soekarno-Hatta International Airport (WIII) |
| Time | Latitude | Longitude | Altitude | Speed | Heading |
|---|---|---|---|---|---|
| 2026-04-23 08:35 | 0.46398 | 101.44682 | 138 ft | 0 kts | 91° |
| 2026-04-23 08:50 | 0.46398 | 101.44664 | 139 ft | 4 kts | 91° |
| 2026-04-23 08:50 | 0.46399 | 101.44636 | 139 ft | 4 kts | 91° |
| 2026-04-23 08:51 | 0.46400 | 101.44609 | 138 ft | 4 kts | 91° |
| 2026-04-23 08:51 | 0.46400 | 101.44581 | 138 ft | 4 kts | 91° |
| 2026-04-23 08:51 | 0.46401 | 101.44555 | 138 ft | 3 kts | 89° |
| 2026-04-23 08:51 | 0.46399 | 101.44542 | 138 ft | 2 kts | 45° |
| 2026-04-23 08:52 | 0.46389 | 101.44536 | 138 ft | 2 kts | 11° |
| 2026-04-23 08:52 | 0.46378 | 101.44534 | 138 ft | 2 kts | 4° |
| 2026-04-23 08:52 | 0.46369 | 101.44534 | 138 ft | 0 kts | 2° |
| 2026-04-23 08:53 | 0.46370 | 101.44534 | 138 ft | 0 kts | 2° |
| 2026-04-23 08:53 | 0.46381 | 101.44534 | 138 ft | 3 kts | 2° |
| 2026-04-23 08:54 | 0.46412 | 101.44536 | 138 ft | 6 kts | 2° |
| 2026-04-23 08:54 | 0.46464 | 101.44538 | 138 ft | 9 kts | 0° |
| 2026-04-23 08:54 | 0.46534 | 101.44539 | 138 ft | 11 kts | 1° |
| 2026-04-23 08:54 | 0.46606 | 101.44538 | 140 ft | 9 kts | 353° |
| 2026-04-23 08:55 | 0.46637 | 101.44490 | 140 ft | 8 kts | 290° |
| 2026-04-23 08:55 | 0.46687 | 101.44468 | 141 ft | 8 kts | 1° |
| 2026-04-23 08:55 | 0.46744 | 101.44470 | 142 ft | 8 kts | 2° |
| 2026-04-23 08:55 | 0.46806 | 101.44472 | 143 ft | 10 kts | 1° |
| 2026-04-23 08:56 | 0.46883 | 101.44474 | 143 ft | 12 kts | 2° |
| 2026-04-23 08:56 | 0.46978 | 101.44477 | 142 ft | 14 kts | 3° |
| 2026-04-23 08:56 | 0.47055 | 101.44504 | 141 ft | 9 kts | 14° |
| 2026-04-23 08:56 | 0.47063 | 101.44469 | 142 ft | 8 kts | 198° |
| 2026-04-23 08:57 | 0.47012 | 101.44477 | 142 ft | 5 kts | 177° |
| 2026-04-23 08:57 | 0.47008 | 101.44477 | 142 ft | 2 kts | 179° |
| 2026-04-23 08:57 | 0.46930 | 101.44476 | 142 ft | 36 kts | 181° |
| 2026-04-23 08:57 | 0.46424 | 101.44462 | 137 ft | 109 kts | 181° |
| 2026-04-23 08:58 | 0.45464 | 101.44439 | 123 ft | 168 kts | 180° |
| 2026-04-23 08:58 | 0.44193 | 101.44425 | 646 ft | 182 kts | 180° |
| 2026-04-23 08:58 | 0.42923 | 101.44388 | 1529 ft | 176 kts | 182° |
| 2026-04-23 08:58 | 0.41743 | 101.44535 | 2379 ft | 178 kts | 149° |
| 2026-04-23 08:59 | 0.40796 | 101.45463 | 2749 ft | 206 kts | 129° |
| 2026-04-23 08:59 | 0.39855 | 101.46640 | 2961 ft | 233 kts | 129° |
| 2026-04-23 08:59 | 0.38802 | 101.47943 | 3304 ft | 251 kts | 129° |
| 2026-04-23 08:59 | 0.37653 | 101.49347 | 3739 ft | 268 kts | 130° |
| 2026-04-23 09:00 | 0.36458 | 101.50787 | 4614 ft | 269 kts | 130° |
| 2026-04-23 09:00 | 0.35250 | 101.52230 | 5427 ft | 274 kts | 130° |
| 2026-04-23 09:00 | 0.34009 | 101.53702 | 6220 ft | 279 kts | 131° |
| 2026-04-23 09:00 | 0.32747 | 101.55189 | 6991 ft | 282 kts | 131° |
| 2026-04-23 09:01 | 0.31469 | 101.56690 | 7782 ft | 285 kts | 131° |
| 2026-04-23 09:01 | 0.30179 | 101.58204 | 8567 ft | 288 kts | 131° |
| 2026-04-23 09:01 | 0.28873 | 101.59732 | 9337 ft | 291 kts | 131° |
| 2026-04-23 09:01 | 0.27550 | 101.61281 | 10061 ft | 295 kts | 131° |
| 2026-04-23 09:02 | 0.26187 | 101.62874 | 10446 ft | 312 kts | 131° |
| 2026-04-23 09:02 | 0.24728 | 101.64578 | 10683 ft | 332 kts | 131° |
| 2026-04-23 09:02 | 0.23213 | 101.66348 | 11253 ft | 338 kts | 131° |
| 2026-04-23 09:02 | 0.21678 | 101.68142 | 11951 ft | 340 kts | 131° |
| 2026-04-23 09:03 | 0.20133 | 101.69948 | 12641 ft | 343 kts | 131° |
| 2026-04-23 09:03 | 0.18575 | 101.71769 | 13300 ft | 346 kts | 131° |
| 2026-04-23 09:03 | 0.17002 | 101.73607 | 13905 ft | 350 kts | 131° |
| 2026-04-23 09:03 | 0.15415 | 101.75462 | 14486 ft | 353 kts | 131° |
| 2026-04-23 09:04 | 0.13808 | 101.77338 | 15058 ft | 357 kts | 131° |
| 2026-04-23 09:04 | 0.12189 | 101.79230 | 15628 ft | 360 kts | 131° |
| 2026-04-23 09:04 | 0.10548 | 101.81137 | 16169 ft | 363 kts | 131° |
| 2026-04-23 09:04 | 0.08908 | 101.83028 | 16749 ft | 366 kts | 131° |
| 2026-04-23 09:05 | 0.07231 | 101.84959 | 17299 ft | 370 kts | 131° |
| 2026-04-23 09:05 | 0.05514 | 101.86936 | 17840 ft | 374 kts | 131° |
| 2026-04-23 09:05 | 0.03805 | 101.88906 | 18336 ft | 377 kts | 131° |
| 2026-04-23 09:05 | 0.02085 | 101.90890 | 18814 ft | 379 kts | 131° |
| 2026-04-23 09:06 | 0.00373 | 101.92866 | 19296 ft | 382 kts | 130° |
| 2026-04-23 09:06 | -0.01368 | 101.94875 | 19768 ft | 384 kts | 131° |
| 2026-04-23 09:06 | -0.03150 | 101.96932 | 20224 ft | 388 kts | 131° |
| 2026-04-23 09:06 | -0.04902 | 101.98953 | 20672 ft | 391 kts | 131° |
| 2026-04-23 09:07 | -0.06708 | 102.01036 | 21138 ft | 393 kts | 131° |
| 2026-04-23 09:07 | -0.08482 | 102.03082 | 21583 ft | 396 kts | 131° |
| 2026-04-23 09:07 | -0.10292 | 102.05170 | 22007 ft | 399 kts | 131° |
| 2026-04-23 09:07 | -0.12119 | 102.07278 | 22430 ft | 402 kts | 131° |
| 2026-04-23 09:08 | -0.13956 | 102.09398 | 22850 ft | 405 kts | 131° |
| 2026-04-23 09:08 | -0.15809 | 102.11536 | 23262 ft | 408 kts | 131° |
| 2026-04-23 09:08 | -0.17674 | 102.13690 | 23614 ft | 411 kts | 131° |
| 2026-04-23 09:08 | -0.19550 | 102.15855 | 23978 ft | 413 kts | 131° |
| 2026-04-23 09:09 | -0.21429 | 102.18023 | 24343 ft | 414 kts | 131° |
| 2026-04-23 09:09 | -0.23322 | 102.20207 | 24697 ft | 416 kts | 131° |
| 2026-04-23 09:09 | -0.25219 | 102.22393 | 25046 ft | 418 kts | 131° |
| 2026-04-23 09:09 | -0.27130 | 102.24591 | 25379 ft | 420 kts | 131° |
| 2026-04-23 09:10 | -0.29048 | 102.26799 | 25709 ft | 422 kts | 131° |
| 2026-04-23 09:10 | -0.32866 | 102.31294 | 26370 ft | 426 kts | 125° |
| 2026-04-23 09:10 | -0.34384 | 102.33852 | 26690 ft | 429 kts | 118° |
| 2026-04-23 09:11 | -0.35755 | 102.36502 | 27018 ft | 431 kts | 117° |
| 2026-04-23 09:11 | -0.37108 | 102.39180 | 27327 ft | 433 kts | 117° |
| 2026-04-23 09:11 | -0.38484 | 102.41860 | 27632 ft | 435 kts | 118° |
| 2026-04-23 09:11 | -0.39889 | 102.44538 | 27927 ft | 436 kts | 118° |
| 2026-04-23 09:12 | -0.41318 | 102.47217 | 28228 ft | 438 kts | 119° |
| 2026-04-23 09:12 | -0.42760 | 102.49905 | 28529 ft | 440 kts | 119° |
| 2026-04-23 09:12 | -0.44211 | 102.52607 | 28814 ft | 442 kts | 119° |
| 2026-04-23 09:12 | -0.45666 | 102.55313 | 29088 ft | 444 kts | 119° |
| 2026-04-23 09:13 | -0.47113 | 102.58000 | 29349 ft | 446 kts | 119° |
| 2026-04-23 09:13 | -0.48585 | 102.60731 | 29606 ft | 447 kts | 119° |
| 2026-04-23 09:13 | -0.50060 | 102.63469 | 29866 ft | 449 kts | 119° |
| 2026-04-23 09:13 | -0.51541 | 102.66219 | 30099 ft | 450 kts | 119° |
| 2026-04-23 09:14 | -0.53031 | 102.68985 | 30319 ft | 452 kts | 119° |
| 2026-04-23 09:14 | -0.54518 | 102.71747 | 30537 ft | 453 kts | 119° |
| 2026-04-23 09:14 | -0.56012 | 102.74525 | 30758 ft | 454 kts | 119° |
| 2026-04-23 09:14 | -0.57514 | 102.77314 | 30979 ft | 455 kts | 119° |
| 2026-04-23 09:15 | -0.59013 | 102.80100 | 31195 ft | 457 kts | 119° |
| 2026-04-23 09:15 | -0.60522 | 102.82903 | 31400 ft | 458 kts | 119° |
| 2026-04-23 09:15 | -0.62031 | 102.85708 | 31590 ft | 460 kts | 119° |
| 2026-04-23 09:15 | -0.63547 | 102.88524 | 31791 ft | 461 kts | 119° |
| 2026-04-23 09:16 | -0.65069 | 102.91352 | 31989 ft | 462 kts | 119° |
| 2026-04-23 09:16 | -0.66592 | 102.94182 | 32182 ft | 463 kts | 119° |
| 2026-04-23 09:16 | -0.68123 | 102.97028 | 32375 ft | 465 kts | 119° |
| 2026-04-23 09:16 | -0.69652 | 102.99868 | 32621 ft | 464 kts | 119° |
| 2026-04-23 09:17 | -0.71180 | 103.02708 | 32904 ft | 463 kts | 119° |
| 2026-04-23 09:17 | -0.72704 | 103.05541 | 33197 ft | 462 kts | 119° |
| 2026-04-23 09:17 | -0.74224 | 103.08366 | 33451 ft | 462 kts | 119° |
| 2026-04-23 09:17 | -0.75749 | 103.11199 | 33689 ft | 463 kts | 119° |
| 2026-04-23 09:18 | -0.77271 | 103.14028 | 33920 ft | 462 kts | 119° |
| 2026-04-23 09:18 | -0.78791 | 103.16852 | 34160 ft | 461 kts | 119° |
| 2026-04-23 09:18 | -0.80312 | 103.19679 | 34393 ft | 461 kts | 118° |
| 2026-04-23 09:18 | -0.81825 | 103.22492 | 34612 ft | 460 kts | 118° |
| 2026-04-23 09:19 | -0.83340 | 103.25308 | 34833 ft | 460 kts | 118° |
| 2026-04-23 09:19 | -0.84834 | 103.28087 | 35069 ft | 459 kts | 118° |
| 2026-04-23 09:19 | -0.86343 | 103.30891 | 35317 ft | 458 kts | 118° |
| 2026-04-23 09:19 | -0.87849 | 103.33691 | 35545 ft | 457 kts | 118° |
| 2026-04-23 09:20 | -0.89467 | 103.36409 | 35753 ft | 456 kts | 129° |
| 2026-04-23 09:20 | -0.91715 | 103.38637 | 35937 ft | 455 kts | 140° |
| 2026-04-23 09:20 | -0.94171 | 103.40626 | 36152 ft | 455 kts | 141° |
| 2026-04-23 09:20 | -0.96655 | 103.42583 | 36328 ft | 455 kts | 141° |
| 2026-04-23 09:21 | -0.99143 | 103.44537 | 36507 ft | 455 kts | 141° |
| 2026-04-23 09:21 | -1.01628 | 103.46502 | 36733 ft | 454 kts | 141° |
| 2026-04-23 09:21 | -1.04098 | 103.48472 | 36787 ft | 456 kts | 141° |
| 2026-04-23 09:22 | -1.09073 | 103.52479 | 36797 ft | 460 kts | 140° |
| 2026-04-23 09:22 | -1.14034 | 103.56496 | 36798 ft | 458 kts | 140° |
| 2026-04-23 09:23 | -1.18969 | 103.60495 | 36791 ft | 456 kts | 140° |
| 2026-04-23 09:23 | -1.23895 | 103.64485 | 36797 ft | 455 kts | 140° |
| 2026-04-23 09:24 | -1.28810 | 103.68466 | 36792 ft | 454 kts | 140° |
| 2026-04-23 09:24 | -1.33689 | 103.72417 | 36794 ft | 454 kts | 140° |
| 2026-04-23 09:25 | -1.38531 | 103.76338 | 36792 ft | 455 kts | 140° |
| 2026-04-23 09:25 | -1.43443 | 103.80316 | 36803 ft | 455 kts | 140° |
| 2026-04-23 09:26 | -1.48370 | 103.84307 | 36799 ft | 456 kts | 140° |
| 2026-04-23 09:26 | -1.53305 | 103.88304 | 36796 ft | 457 kts | 140° |
| 2026-04-23 09:27 | -1.58253 | 103.92312 | 36801 ft | 458 kts | 140° |
| 2026-04-23 09:27 | -1.63206 | 103.96325 | 36789 ft | 459 kts | 140° |
| 2026-04-23 09:28 | -1.68164 | 104.00342 | 36796 ft | 459 kts | 140° |
| 2026-04-23 09:28 | -1.73135 | 104.04370 | 36801 ft | 460 kts | 140° |
| 2026-04-23 09:29 | -1.78107 | 104.08399 | 36801 ft | 460 kts | 140° |
| 2026-04-23 09:29 | -1.83080 | 104.12429 | 36796 ft | 460 kts | 140° |
| 2026-04-23 09:30 | -1.88053 | 104.16460 | 36792 ft | 460 kts | 140° |
| 2026-04-23 09:30 | -1.93027 | 104.20492 | 36805 ft | 460 kts | 140° |
| 2026-04-23 09:31 | -1.97974 | 104.24501 | 36790 ft | 460 kts | 140° |
| 2026-04-23 09:31 | -2.02941 | 104.28523 | 36794 ft | 459 kts | 140° |
| 2026-04-23 09:32 | -2.07901 | 104.32540 | 36800 ft | 458 kts | 140° |
| 2026-04-23 09:32 | -2.12842 | 104.36544 | 36795 ft | 457 kts | 140° |
| 2026-04-23 09:33 | -2.17783 | 104.40548 | 36808 ft | 457 kts | 140° |
| 2026-04-23 09:33 | -2.22715 | 104.44546 | 36798 ft | 456 kts | 140° |
| 2026-04-23 09:34 | -2.27641 | 104.48539 | 36794 ft | 456 kts | 140° |
| 2026-04-23 09:34 | -2.32559 | 104.52525 | 36804 ft | 455 kts | 140° |
| 2026-04-23 09:35 | -2.37448 | 104.56489 | 36802 ft | 455 kts | 140° |
| 2026-04-23 09:35 | -2.42368 | 104.60479 | 36802 ft | 455 kts | 140° |
| 2026-04-23 09:36 | -2.47292 | 104.64472 | 36801 ft | 456 kts | 140° |
| 2026-04-23 09:36 | -2.52222 | 104.68470 | 36802 ft | 457 kts | 140° |
| 2026-04-23 09:37 | -2.56996 | 104.72342 | 36801 ft | 457 kts | 140° |
| 2026-04-23 09:37 | -2.61939 | 104.76352 | 36798 ft | 458 kts | 140° |
| 2026-04-23 09:38 | -2.66887 | 104.80366 | 36799 ft | 458 kts | 140° |
| 2026-04-23 09:38 | -2.71838 | 104.84383 | 36807 ft | 458 kts | 140° |
| 2026-04-23 09:39 | -2.76789 | 104.88400 | 36804 ft | 458 kts | 140° |
| 2026-04-23 09:39 | -2.81741 | 104.92419 | 36800 ft | 458 kts | 140° |
| 2026-04-23 09:40 | -2.86659 | 104.96410 | 36800 ft | 458 kts | 140° |
| 2026-04-23 09:40 | -2.91602 | 105.00422 | 36803 ft | 457 kts | 140° |
| 2026-04-23 09:41 | -2.96540 | 105.04431 | 36798 ft | 457 kts | 140° |
| 2026-04-23 09:41 | -3.00675 | 105.07788 | 36796 ft | 456 kts | 140° |
| 2026-04-23 09:42 | -3.05602 | 105.11789 | 36804 ft | 456 kts | 140° |
| 2026-04-23 09:42 | -3.10487 | 105.15756 | 36800 ft | 455 kts | 140° |
| 2026-04-23 09:43 | -3.15405 | 105.19751 | 36805 ft | 455 kts | 140° |
| 2026-04-23 09:43 | -3.20315 | 105.23740 | 36805 ft | 455 kts | 140° |
| 2026-04-23 09:44 | -3.25228 | 105.27731 | 36799 ft | 455 kts | 140° |
| 2026-04-23 09:44 | -3.30106 | 105.31764 | 36800 ft | 455 kts | 139° |
| 2026-04-23 09:45 | -3.34957 | 105.35831 | 36803 ft | 455 kts | 139° |
| 2026-04-23 09:45 | -3.39816 | 105.39900 | 36799 ft | 456 kts | 139° |
| 2026-04-23 09:46 | -3.44686 | 105.43968 | 36796 ft | 456 kts | 139° |
| 2026-04-23 09:46 | -3.49556 | 105.48036 | 36800 ft | 456 kts | 139° |
| 2026-04-23 09:47 | -3.54434 | 105.52112 | 36803 ft | 457 kts | 139° |
| 2026-04-23 09:47 | -3.59312 | 105.56186 | 36803 ft | 457 kts | 139° |
| 2026-04-23 09:48 | -3.64196 | 105.60263 | 36800 ft | 457 kts | 139° |
| 2026-04-23 09:48 | -3.69054 | 105.64318 | 36804 ft | 458 kts | 139° |
| 2026-04-23 09:49 | -3.73944 | 105.68402 | 36801 ft | 458 kts | 139° |
| 2026-04-23 09:49 | -3.78841 | 105.72492 | 36802 ft | 458 kts | 139° |
| 2026-04-23 09:50 | -3.83738 | 105.76585 | 36804 ft | 459 kts | 139° |
| 2026-04-23 09:50 | -3.88634 | 105.80676 | 36800 ft | 459 kts | 139° |
| 2026-04-23 09:51 | -3.93533 | 105.84770 | 36803 ft | 459 kts | 139° |
| 2026-04-23 09:51 | -3.98431 | 105.88865 | 36801 ft | 458 kts | 139° |
| 2026-04-23 09:52 | -4.03323 | 105.92955 | 36804 ft | 458 kts | 139° |
| 2026-04-23 09:52 | -4.08212 | 105.97043 | 36798 ft | 458 kts | 139° |
| 2026-04-23 09:53 | -4.13100 | 106.01132 | 36803 ft | 457 kts | 139° |
| 2026-04-23 09:53 | -4.17982 | 106.05215 | 36806 ft | 457 kts | 139° |
| 2026-04-23 09:54 | -4.22860 | 106.09296 | 36805 ft | 457 kts | 139° |
| 2026-04-23 09:54 | -4.27730 | 106.13372 | 36807 ft | 456 kts | 139° |
| 2026-04-23 09:55 | -4.32568 | 106.17421 | 36803 ft | 456 kts | 139° |
| 2026-04-23 09:55 | -4.37436 | 106.21496 | 36802 ft | 456 kts | 139° |
| 2026-04-23 09:56 | -4.42302 | 106.25570 | 36806 ft | 456 kts | 139° |
| 2026-04-23 09:56 | -4.47168 | 106.29645 | 36803 ft | 456 kts | 139° |
| 2026-04-23 09:57 | -4.52036 | 106.33722 | 36807 ft | 456 kts | 139° |
| 2026-04-23 09:57 | -4.56905 | 106.37801 | 36809 ft | 456 kts | 139° |
| 2026-04-23 09:58 | -4.61780 | 106.41885 | 36808 ft | 456 kts | 139° |
| 2026-04-23 09:58 | -4.66678 | 106.45991 | 36200 ft | 463 kts | 139° |
| 2026-04-23 09:58 | -4.69146 | 106.48059 | 35636 ft | 461 kts | 139° |
| 2026-04-23 09:59 | -4.71605 | 106.50120 | 35024 ft | 462 kts | 139° |
| 2026-04-23 09:59 | -4.74072 | 106.52188 | 34362 ft | 463 kts | 139° |
| 2026-04-23 09:59 | -4.76551 | 106.54267 | 33676 ft | 465 kts | 139° |
| 2026-04-23 09:59 | -4.79039 | 106.56354 | 32925 ft | 467 kts | 139° |
| 2026-04-23 10:00 | -4.81532 | 106.58445 | 32218 ft | 468 kts | 139° |
| 2026-04-23 10:00 | -4.84015 | 106.60527 | 31745 ft | 463 kts | 139° |
| 2026-04-23 10:00 | -4.86531 | 106.62527 | 31215 ft | 460 kts | 147° |
| 2026-04-23 10:00 | -4.89373 | 106.63982 | 30750 ft | 457 kts | 155° |
| 2026-04-23 10:01 | -4.92277 | 106.65264 | 30217 ft | 455 kts | 156° |
| 2026-04-23 10:01 | -4.95170 | 106.66521 | 29717 ft | 452 kts | 156° |
| 2026-04-23 10:01 | -4.98040 | 106.67783 | 29148 ft | 448 kts | 155° |
| 2026-04-23 10:01 | -5.00838 | 106.69036 | 28636 ft | 444 kts | 155° |
| 2026-04-23 10:02 | -5.03634 | 106.70305 | 28124 ft | 440 kts | 155° |
| 2026-04-23 10:02 | -5.06445 | 106.71590 | 27634 ft | 436 kts | 155° |
| 2026-04-23 10:02 | -5.09192 | 106.72848 | 27148 ft | 432 kts | 154° |
| 2026-04-23 10:02 | -5.11877 | 106.74078 | 26671 ft | 428 kts | 154° |
| 2026-04-23 10:03 | -5.14616 | 106.75332 | 26188 ft | 425 kts | 154° |
| 2026-04-23 10:03 | -5.17257 | 106.76539 | 25712 ft | 422 kts | 154° |
| 2026-04-23 10:03 | -5.19924 | 106.77753 | 25231 ft | 420 kts | 155° |
| 2026-04-23 10:03 | -5.22582 | 106.78956 | 24746 ft | 418 kts | 155° |
| 2026-04-23 10:04 | -5.25224 | 106.80150 | 24261 ft | 416 kts | 155° |
| 2026-04-23 10:04 | -5.27852 | 106.81338 | 23782 ft | 414 kts | 155° |
| 2026-04-23 10:04 | -5.30474 | 106.82525 | 23287 ft | 412 kts | 155° |
| 2026-04-23 10:04 | -5.33081 | 106.83705 | 22745 ft | 410 kts | 155° |
| 2026-04-23 10:05 | -5.35668 | 106.84878 | 22257 ft | 407 kts | 155° |
| 2026-04-23 10:05 | -5.38239 | 106.86043 | 21778 ft | 403 kts | 155° |
| 2026-04-23 10:05 | -5.40781 | 106.87196 | 21316 ft | 400 kts | 155° |
| 2026-04-23 10:05 | -5.43301 | 106.88337 | 21061 ft | 391 kts | 155° |
| 2026-04-23 10:06 | -5.45797 | 106.89316 | 20872 ft | 382 kts | 167° |
| 2026-04-23 10:06 | -5.48412 | 106.89536 | 20659 ft | 377 kts | 184° |
| 2026-04-23 10:06 | -5.50968 | 106.88882 | 20136 ft | 381 kts | 200° |
| 2026-04-23 10:06 | -5.53451 | 106.87933 | 19614 ft | 383 kts | 201° |
| 2026-04-23 10:07 | -5.55926 | 106.86945 | 19103 ft | 383 kts | 201° |
| 2026-04-23 10:07 | -5.58404 | 106.85953 | 18608 ft | 384 kts | 201° |
| 2026-04-23 10:07 | -5.60885 | 106.84970 | 18097 ft | 384 kts | 201° |
| 2026-04-23 10:07 | -5.63379 | 106.83994 | 17535 ft | 384 kts | 201° |
| 2026-04-23 10:08 | -5.65869 | 106.83027 | 17016 ft | 383 kts | 201° |
| 2026-04-23 10:08 | -5.68351 | 106.82067 | 16506 ft | 381 kts | 201° |
| 2026-04-23 10:08 | -5.70816 | 106.81116 | 16010 ft | 379 kts | 201° |
| 2026-04-23 10:09 | -5.75691 | 106.79236 | 15033 ft | 376 kts | 201° |
| 2026-04-23 10:09 | -5.78097 | 106.78308 | 14490 ft | 375 kts | 201° |
| 2026-04-23 10:09 | -5.80550 | 106.77361 | 13900 ft | 377 kts | 201° |
| 2026-04-23 10:09 | -5.82992 | 106.76420 | 13420 ft | 375 kts | 201° |
| 2026-04-23 10:10 | -5.85316 | 106.75292 | 12942 ft | 370 kts | 217° |
| 2026-04-23 10:10 | -5.87113 | 106.73494 | 12532 ft | 363 kts | 235° |
| 2026-04-23 10:10 | -5.88261 | 106.71271 | 12223 ft | 354 kts | 248° |
| 2026-04-23 10:10 | -5.89159 | 106.68992 | 11871 ft | 349 kts | 249° |
| 2026-04-23 10:11 | -5.90022 | 106.66727 | 11479 ft | 345 kts | 249° |
| 2026-04-23 10:11 | -5.90886 | 106.64490 | 11096 ft | 342 kts | 249° |
| 2026-04-23 10:11 | -5.91757 | 106.62282 | 10722 ft | 339 kts | 249° |
| 2026-04-23 10:11 | -5.92627 | 106.60099 | 10328 ft | 332 kts | 248° |
| 2026-04-23 10:12 | -5.93474 | 106.57986 | 9978 ft | 320 kts | 248° |
| 2026-04-23 10:12 | -5.94285 | 106.55988 | 9954 ft | 298 kts | 248° |
| 2026-04-23 10:12 | -5.95053 | 106.54109 | 9717 ft | 287 kts | 248° |
| 2026-04-23 10:12 | -5.95810 | 106.52256 | 9312 ft | 284 kts | 248° |
| 2026-04-23 10:13 | -5.96562 | 106.50416 | 9196 ft | 286 kts | 248° |
| 2026-04-23 10:13 | -5.97643 | 106.48810 | 9024 ft | 274 kts | 218° |
| 2026-04-23 10:13 | -5.99301 | 106.48033 | 8998 ft | 257 kts | 193° |
| 2026-04-23 10:13 | -6.01028 | 106.47876 | 8988 ft | 245 kts | 178° |
| 2026-04-23 10:14 | -6.02717 | 106.48000 | 8903 ft | 243 kts | 174° |
| 2026-04-23 10:14 | -6.04407 | 106.48170 | 8524 ft | 251 kts | 174° |
| 2026-04-23 10:14 | -6.06188 | 106.48344 | 8028 ft | 262 kts | 174° |
| 2026-04-23 10:14 | -6.08030 | 106.48513 | 7391 ft | 271 kts | 174° |
| 2026-04-23 10:15 | -6.09948 | 106.48680 | 6676 ft | 281 kts | 174° |
| 2026-04-23 10:15 | -6.11895 | 106.48848 | 5924 ft | 279 kts | 173° |
| 2026-04-23 10:15 | -6.13719 | 106.49438 | 4999 ft | 278 kts | 146° |
| 2026-04-23 10:15 | -6.15052 | 106.50803 | 4123 ft | 274 kts | 118° |
| 2026-04-23 10:16 | -6.15621 | 106.52603 | 3235 ft | 271 kts | 93° |
| 2026-04-23 10:16 | -6.15408 | 106.54458 | 2356 ft | 268 kts | 71° |
| 2026-04-23 10:16 | -6.14746 | 106.56189 | 1726 ft | 258 kts | 66° |
| 2026-04-23 10:16 | -6.14092 | 106.57771 | 1602 ft | 231 kts | 66° |
| 2026-04-23 10:17 | -6.13514 | 106.59185 | 1427 ft | 208 kts | 66° |
| 2026-04-23 10:17 | -6.13005 | 106.60441 | 1255 ft | 190 kts | 65° |
| 2026-04-23 10:17 | -6.12485 | 106.61649 | 792 ft | 187 kts | 63° |
| 2026-04-23 10:17 | -6.12012 | 106.62820 | 475 ft | 175 kts | 69° |
| 2026-04-23 10:18 | -6.11612 | 106.63865 | 199 ft | 163 kts | 66° |
| 2026-04-23 10:18 | -6.11229 | 106.64860 | 45 ft | 141 kts | 66° |
| 2026-04-23 10:18 | -6.10932 | 106.65596 | 40 ft | 83 kts | 68° |
| 2026-04-23 10:18 | -6.10819 | 106.65881 | 42 ft | 8 kts | 69° |
| 2026-04-23 10:19 | -6.10795 | 106.65943 | 42 ft | 13 kts | 68° |
| 2026-04-23 10:19 | -6.10750 | 106.66056 | 40 ft | 22 kts | 68° |
| 2026-04-23 10:19 | -6.10685 | 106.66220 | 38 ft | 29 kts | 69° |
| 2026-04-23 10:19 | -6.10631 | 106.66417 | 38 ft | 28 kts | 85° |
| 2026-04-23 10:20 | -6.10653 | 106.66602 | 37 ft | 19 kts | 100° |
| 2026-04-23 10:20 | -6.10717 | 106.66676 | 37 ft | 13 kts | 161° |
| 2026-04-23 10:20 | -6.10793 | 106.66671 | 37 ft | 11 kts | 228° |
| 2026-04-23 10:20 | -6.10825 | 106.66599 | 36 ft | 12 kts | 249° |
| 2026-04-23 10:21 | -6.10861 | 106.66508 | 37 ft | 16 kts | 248° |
| 2026-04-23 10:21 | -6.10908 | 106.66393 | 37 ft | 20 kts | 248° |
| 2026-04-23 10:21 | -6.10963 | 106.66254 | 38 ft | 23 kts | 249° |
| 2026-04-23 10:21 | -6.11025 | 106.66100 | 36 ft | 23 kts | 248° |
| 2026-04-23 10:22 | -6.11078 | 106.66003 | 37 ft | 12 kts | 205° |
| 2026-04-23 10:22 | -6.11146 | 106.66017 | 39 ft | 10 kts | 154° |
| 2026-04-23 10:22 | -6.11205 | 106.66048 | 39 ft | 10 kts | 143° |
| 2026-04-23 10:22 | -6.11244 | 106.66115 | 39 ft | 13 kts | 105° |
| 2026-04-23 10:23 | -6.11262 | 106.66211 | 39 ft | 14 kts | 100° |
| 2026-04-23 10:23 | -6.11314 | 106.66282 | 38 ft | 13 kts | 158° |
| 2026-04-23 10:23 | -6.11396 | 106.66314 | 37 ft | 13 kts | 158° |
| 2026-04-23 10:23 | -6.11477 | 106.66347 | 37 ft | 12 kts | 158° |
| 2026-04-23 10:24 | -6.11556 | 106.66378 | 37 ft | 12 kts | 159° |
| 2026-04-23 10:24 | -6.11624 | 106.66408 | 37 ft | 10 kts | 143° |
| 2026-04-23 10:24 | -6.11642 | 106.66470 | 37 ft | 10 kts | 74° |
| 2026-04-23 10:24 | -6.11618 | 106.66526 | 37 ft | 8 kts | 68° |
| 2026-04-23 10:25 | -6.11636 | 106.66567 | 36 ft | 7 kts | 152° |
| 2026-04-23 10:25 | -6.11673 | 106.66581 | 35 ft | 3 kts | 158° |
| 2026-04-23 10:25 | -6.11687 | 106.66586 | 37 ft | 2 kts | 158° |
| 2026-04-23 10:25 | -6.11700 | 106.66592 | 37 ft | 2 kts | 156° |
| 2026-04-23 10:26 | -6.11709 | 106.66600 | 35 ft | 1 kts | 132° |
| 2026-04-23 10:26 | -6.11709 | 106.66601 | 36 ft | 0 kts | 132° |